Time;durP1;ratioP1;P1;durP2;ratioP2;P2;SDS_P1;SDS_P2;PMS_P1;PMS_P2;Temp;Humidity;BMP_temperature;BMP_pressure;BME280_temperature;BME280_humidity;BME280_pressure;Samples;Min_cycle;Max_cycle;Signal;HPM_P1;HPM_P2
2022/02/06 00:00:53;;;;;;;7.88;3.90;;;5.10;95.10;;;;;;5007463;28;20025;-72
2022/02/06 00:03:19;;;;;;;8.52;4.65;;;5.10;95.10;;;;;;5004264;28;20030;-72
2022/02/06 00:05:47;;;;;;;9.82;4.22;;;5.20;94.90;;;;;;4993532;28;20505;-72
2022/02/06 00:08:13;;;;;;;8.98;3.67;;;5.10;94.90;;;;;;4993640;28;20986;-72
2022/02/06 00:10:39;;;;;;;6.43;3.80;;;5.10;95.00;;;;;;5004316;28;20112;-72
2022/02/06 00:13:05;;;;;;;8.00;4.25;;;5.10;95.00;;;;;;4983539;28;20083;-72
2022/02/06 00:15:30;;;;;;;8.32;3.88;;;5.10;95.10;;;;;;4995925;28;20088;-72
2022/02/06 00:17:56;;;;;;;6.20;3.58;;;5.10;95.10;;;;;;4991119;28;20050;-71
2022/02/06 00:20:25;;;;;;;10.30;4.90;;;5.20;95.10;;;;;;4997402;28;20381;-72
2022/02/06 00:22:55;;;;;;;8.02;4.03;;;5.10;95.10;;;;;;4990450;28;20118;-72
2022/02/06 00:30:38;;;;;;;8.88;4.65;;;5.30;94.90;;;;;;4991951;28;20038;-72
2022/02/06 00:33:13;;;;;;;8.00;3.58;;;5.30;94.90;;;;;;4992383;28;20363;-71
2022/02/06 00:38:26;;;;;;;8.85;3.83;;;5.30;95.00;;;;;;4988459;28;20026;-71
2022/02/06 00:43:21;;;;;;;6.25;4.05;;;5.30;95.00;;;;;;4998919;28;20030;-72
2022/02/06 00:45:46;;;;;;;11.60;4.90;;;5.40;94.90;;;;;;4993558;28;20026;-72
2022/02/06 00:48:13;;;;;;;8.77;4.25;;;5.40;94.80;;;;;;4993418;28;20365;-72
2022/02/06 00:50:45;;;;;;;6.57;4.28;;;5.40;94.90;;;;;;4993917;28;20312;-72
2022/02/06 00:53:16;;;;;;;8.20;4.50;;;5.40;94.80;;;;;;4999882;28;20454;-72
2022/02/06 00:55:42;;;;;;;7.18;4.10;;;5.40;94.90;;;;;;4995987;28;20022;-72
2022/02/06 00:58:08;;;;;;;5.75;3.78;;;5.40;94.90;;;;;;5003092;28;20104;-72
2022/02/06 01:00:33;;;;;;;6.03;4.07;;;5.40;94.90;;;;;;4995506;28;20161;-72
2022/02/06 01:02:59;;;;;;;5.63;4.18;;;5.50;94.90;;;;;;4991682;28;20038;-72
2022/02/06 01:05:24;;;;;;;7.38;4.22;;;5.40;94.90;;;;;;4987728;28;20117;-72
2022/02/06 01:07:51;;;;;;;8.68;3.65;;;5.40;94.90;;;;;;4992356;28;20030;-72
2022/02/06 01:10:17;;;;;;;8.13;4.88;;;5.40;95.00;;;;;;4988838;28;20037;-72
2022/02/06 01:12:48;;;;;;;6.68;3.83;;;5.40;95.10;;;;;;4994677;28;20369;-72
2022/02/06 01:15:19;;;;;;;6.18;3.70;;;5.40;95.20;;;;;;4990588;28;20133;-72
2022/02/06 01:17:52;;;;;;;;;;;5.40;95.10;;;;;;4991990;28;20038;-72
2022/02/06 01:20:23;;;;;;;9.30;4.05;;;5.40;95.10;;;;;;4996249;28;19992;-71
2022/02/06 01:22:56;;;;;;;7.28;4.00;;;5.40;95.30;;;;;;4981026;28;20377;-72
2022/02/06 01:25:37;;;;;;;7.78;4.20;;;5.40;95.30;;;;;;4992973;28;20037;-71
2022/02/06 01:28:08;;;;;;;8.70;3.47;;;5.40;95.30;;;;;;4998996;28;20018;-71
2022/02/06 01:33:28;;;;;;;6.20;3.50;;;5.50;95.30;;;;;;4997686;28;20041;-72
2022/02/06 01:36:04;;;;;;;6.28;3.88;;;5.50;95.30;;;;;;4987902;28;20033;-72
2022/02/06 01:38:59;;;;;;;5.72;3.03;;;5.40;95.30;;;;;;4988177;28;20067;-71
2022/02/06 01:41:24;;;;;;;4.28;3.00;;;5.60;95.30;;;;;;4992065;28;20038;-72
2022/02/06 01:43:55;;;;;;;5.78;3.30;;;5.50;95.40;;;;;;4990170;28;20366;-72
2022/02/06 01:46:51;;;;;;;8.35;3.90;;;5.50;95.40;;;;;;4991853;28;20030;-71
2022/02/06 02:05:51;;;;;;;7.25;3.13;;;5.60;95.30;;;;;;4999543;28;20038;-71
2022/02/06 02:22:28;;;;;;;5.22;3.45;;;5.60;95.60;;;;;;4972379;28;20057;-71
2022/02/06 02:25:24;;;;;;;7.50;4.03;;;5.60;95.50;;;;;;4991307;28;20030;-71
2022/02/06 02:33:23;;;;;;;6.63;3.42;;;5.60;95.60;;;;;;4990230;28;20058;-71
2022/02/06 02:46:36;;;;;;;5.80;2.80;;;5.70;95.80;;;;;;4993243;28;20084;-71
2022/02/06 02:49:02;;;;;;;6.15;3.60;;;5.70;95.70;;;;;;4986594;28;20030;-71
2022/02/06 02:51:33;;;;;;;6.63;3.25;;;5.80;95.80;;;;;;4991746;28;20030;-72
2022/02/06 02:54:05;;;;;;;6.45;3.58;;;5.70;95.80;;;;;;4993570;28;20029;-72
2022/02/06 03:03:53;;;;;;;6.88;3.85;;;5.80;96.00;;;;;;4993691;28;20092;-71
2022/02/06 03:06:18;;;;;;;8.07;3.42;;;5.80;96.00;;;;;;4993880;28;20026;-71
2022/02/06 03:08:46;;;;;;;5.25;2.85;;;5.80;96.00;;;;;;5005763;28;20034;-71
2022/02/06 03:11:11;;;;;;;5.57;3.13;;;5.80;95.90;;;;;;4999150;28;20042;-71
2022/02/06 03:21:22;;;;;;;5.75;2.60;;;5.80;96.00;;;;;;4994690;28;20047;-71
2022/02/06 03:23:51;;;;;;;8.25;3.65;;;5.80;96.10;;;;;;5003177;28;20033;-71
2022/02/06 03:26:21;;;;;;;5.47;2.85;;;5.80;96.00;;;;;;4995855;28;20022;-72
2022/02/06 03:28:47;;;;;;;5.95;2.88;;;5.90;96.00;;;;;;5008343;28;20107;-71
2022/02/06 03:31:12;;;;;;;6.22;3.20;;;5.90;95.90;;;;;;4999446;28;20417;-72
2022/02/06 03:33:38;;;;;;;5.00;2.67;;;5.90;95.90;;;;;;5009579;28;20034;-71
2022/02/06 03:36:04;;;;;;;5.13;2.97;;;6.00;96.00;;;;;;4993262;28;20065;-71
2022/02/06 03:38:29;;;;;;;6.00;2.88;;;5.90;96.00;;;;;;4999928;28;20036;-71
2022/02/06 03:41:01;;;;;;;5.35;2.70;;;5.90;96.10;;;;;;4992727;28;20033;-71
2022/02/06 03:43:37;;;;;;;4.85;2.45;;;5.90;96.00;;;;;;4995410;28;20050;-71
2022/02/06 03:46:56;;;;;;;6.50;2.30;;;6.00;95.90;;;;;;4988701;28;20020;-71
2022/02/06 03:51:50;;;;;;;6.35;2.25;;;6.00;95.80;;;;;;4977556;28;20371;-72
2022/02/06 03:54:17;;;;;;;3.22;1.95;;;6.10;95.80;;;;;;4993121;28;20037;-71
2022/02/06 03:56:44;;;;;;;3.65;2.20;;;6.10;95.70;;;;;;4999007;28;20085;-71
2022/02/06 03:59:10;;;;;;;5.25;1.83;;;6.10;95.70;;;;;;4990604;28;20365;-71
2022/02/06 04:01:35;;;;;;;7.25;2.60;;;6.10;95.80;;;;;;4988865;28;20121;-71
2022/02/06 04:04:01;;;;;;;4.38;2.28;;;6.10;95.80;;;;;;4991835;28;20113;-71
2022/02/06 04:06:28;;;;;;;3.50;2.28;;;6.10;95.90;;;;;;4990338;28;20033;-71
2022/02/06 04:08:56;;;;;;;3.33;2.03;;;6.10;95.90;;;;;;4997349;28;20022;-71
2022/02/06 04:11:32;;;;;;;4.13;2.42;;;6.10;95.90;;;;;;4994026;28;20026;-71
2022/02/06 04:14:19;;;;;;;4.93;2.50;;;6.10;95.90;;;;;;4986213;28;20081;-72
2022/02/06 04:16:51;;;;;;;5.63;2.33;;;6.10;96.00;;;;;;4997406;28;21311;-71
2022/02/06 04:19:26;;;;;;;2.45;1.90;;;6.10;95.90;;;;;;4990349;28;20740;-71
2022/02/06 04:21:56;;;;;;;4.65;2.45;;;6.10;95.90;;;;;;4987674;28;20479;-72
2022/02/06 04:24:24;;;;;;;5.18;1.88;;;6.10;95.90;;;;;;4979483;28;20409;-71
2022/02/06 04:26:51;;;;;;;3.53;2.28;;;6.20;95.80;;;;;;4983742;28;20037;-72
2022/02/06 04:29:16;;;;;;;3.88;2.30;;;6.10;95.80;;;;;;4991408;28;20545;-71
2022/02/06 04:31:43;;;;;;;5.07;2.72;;;6.20;95.80;;;;;;4987246;28;20052;-71
2022/02/06 04:34:08;;;;;;;3.78;2.33;;;6.20;95.90;;;;;;4988267;28;20466;-72
2022/02/06 04:36:46;;;;;;;3.97;2.10;;;6.20;95.80;;;;;;4990782;28;20072;-72
2022/02/06 04:39:33;;;;;;;3.35;2.17;;;6.20;95.90;;;;;;4985838;28;20386;-72
2022/02/06 04:45:08;;;;;;;3.53;1.90;;;6.30;96.00;;;;;;4985356;28;20051;-72
2022/02/06 04:50:52;;;;;;;4.25;2.33;;;6.30;96.10;;;;;;5001612;28;20041;-72
2022/02/06 05:10:53;;;;;;;3.58;1.65;;;6.20;96.20;;;;;;4993288;28;20026;-71
2022/02/06 05:12:59;;;;;;;4.07;1.65;;;6.40;96.00;;;;;;4994588;28;20041;-72
2022/02/06 05:15:28;;;;;;;2.53;1.73;;;6.50;95.90;;;;;;4989065;28;20350;-72
2022/02/06 05:18:28;;;;;;;3.28;1.70;;;6.50;95.90;;;;;;4993897;28;20073;-72
2022/02/06 05:21:31;;;;;;;2.88;1.67;;;6.50;95.80;;;;;;4994855;28;20042;-70
2022/02/06 05:29:28;;;;;;;3.38;1.73;;;6.40;96.00;;;;;;4999907;28;20105;-70
2022/02/06 05:32:01;;;;;;;4.20;1.83;;;6.50;96.00;;;;;;4991179;28;20053;-70
2022/02/06 05:34:26;;;;;;;4.75;1.83;;;6.50;96.00;;;;;;4986450;28;20142;-70
2022/02/06 05:36:52;;;;;;;4.90;2.13;;;6.50;96.00;;;;;;4989395;28;20113;-70
2022/02/06 05:39:17;;;;;;;3.25;1.65;;;6.50;96.00;;;;;;5001926;28;20488;-70
2022/02/06 05:41:43;;;;;;;2.83;1.75;;;6.50;96.00;;;;;;4991173;28;20505;-70
2022/02/06 05:44:08;;;;;;;4.30;1.80;;;6.50;96.20;;;;;;4991721;28;20100;-70
2022/02/06 05:46:34;;;;;;;2.95;1.55;;;6.50;96.20;;;;;;4991612;28;20030;-70
2022/02/06 05:48:59;;;;;;;2.22;1.30;;;6.40;96.30;;;;;;4992447;28;20022;-70
2022/02/06 05:51:25;;;;;;;4.38;1.88;;;6.50;96.30;;;;;;4990848;28;20042;-70
2022/02/06 05:53:50;;;;;;;4.22;1.60;;;6.50;96.30;;;;;;4989756;28;20073;-70
2022/02/06 05:56:18;;;;;;;2.75;1.55;;;6.50;96.30;;;;;;4990639;28;20489;-70
2022/02/06 05:58:44;;;;;;;2.05;1.33;;;6.50;96.40;;;;;;4989812;28;20030;-70
2022/02/06 06:01:10;;;;;;;2.97;1.77;;;6.50;96.50;;;;;;4983184;28;20473;-70
2022/02/06 06:03:36;;;;;;;2.78;1.52;;;6.50;96.50;;;;;;4982114;28;20113;-70
2022/02/06 06:06:01;;;;;;;3.28;1.55;;;6.50;96.60;;;;;;4979609;28;20415;-70
2022/02/06 06:08:27;;;;;;;6.05;1.70;;;6.50;96.50;;;;;;4988466;28;20781;-70
2022/02/06 06:10:52;;;;;;;3.67;1.63;;;6.50;96.60;;;;;;4984900;28;20530;-70
2022/02/06 06:13:18;;;;;;;2.97;1.50;;;6.50;96.60;;;;;;4983518;28;20032;-70
2022/02/06 06:15:44;;;;;;;4.18;1.80;;;6.50;96.60;;;;;;4983515;28;20051;-70
2022/02/06 06:18:12;;;;;;;3.08;2.03;;;6.50;96.60;;;;;;4990502;28;20034;-70
2022/02/06 06:20:39;;;;;;;6.35;1.90;;;6.60;96.60;;;;;;4983473;28;20469;-70
2022/02/06 06:23:04;;;;;;;4.05;1.60;;;6.60;96.60;;;;;;4984802;28;20022;-70
2022/02/06 06:25:40;;;;;;;5.78;1.85;;;6.60;96.50;;;;;;4990077;28;20173;-70
2022/02/06 06:28:07;;;;;;;5.30;2.35;;;6.60;96.60;;;;;;4984941;28;20027;-70
2022/02/06 06:30:35;;;;;;;4.25;2.28;;;6.60;96.60;;;;;;4984043;28;20038;-71
2022/02/06 06:33:04;;;;;;;6.00;2.28;;;6.60;96.70;;;;;;4986088;28;20030;-71
2022/02/06 06:35:30;;;;;;;5.53;2.40;;;6.60;96.70;;;;;;4985595;28;20061;-71
2022/02/06 06:37:58;;;;;;;4.35;2.28;;;6.60;96.80;;;;;;4985671;28;20018;-71
2022/02/06 06:40:25;;;;;;;3.42;2.00;;;6.60;96.80;;;;;;5007180;28;20398;-71
2022/02/06 06:42:51;;;;;;;4.85;2.40;;;6.60;96.70;;;;;;4988339;28;20125;-71
2022/02/06 06:45:16;;;;;;;5.60;2.55;;;6.60;96.70;;;;;;4990197;28;20549;-71
2022/02/06 06:47:50;;;;;;;4.88;2.80;;;6.60;96.80;;;;;;4978484;28;20066;-71
2022/02/06 06:50:15;;;;;;;4.07;2.35;;;6.70;96.90;;;;;;4984025;28;20031;-71
2022/02/06 06:52:41;;;;;;;4.72;2.20;;;6.60;96.80;;;;;;4985758;28;20462;-71
2022/02/06 06:55:07;;;;;;;4.47;1.88;;;6.60;96.80;;;;;;4995653;28;20058;-71
2022/02/06 06:57:39;;;;;;;3.97;1.73;;;6.60;96.90;;;;;;4999492;28;20085;-71
2022/02/06 07:02:31;;;;;;;4.78;2.08;;;6.70;96.90;;;;;;4995563;28;20027;-71
2022/02/06 07:05:03;;;;;;;2.40;1.63;;;6.70;96.80;;;;;;4992143;28;20073;-71
2022/02/06 07:07:29;;;;;;;2.92;1.90;;;6.70;96.90;;;;;;4986624;28;20030;-71
2022/02/06 07:09:55;;;;;;;3.05;2.05;;;6.70;96.90;;;;;;5002898;28;20034;-71
2022/02/06 07:12:21;;;;;;;2.65;1.92;;;6.70;96.90;;;;;;4993494;28;20516;-71
2022/02/06 07:14:48;;;;;;;3.88;2.35;;;6.60;96.90;;;;;;4993771;28;20083;-71
2022/02/06 07:17:14;;;;;;;6.22;2.45;;;6.70;96.90;;;;;;4995045;28;20026;-71
2022/02/06 07:19:41;;;;;;;4.05;1.90;;;6.70;96.80;;;;;;4997878;28;20405;-71
2022/02/06 07:22:10;;;;;;;5.75;1.60;;;6.80;96.70;;;;;;4995547;28;20076;-71
2022/02/06 07:24:36;;;;;;;2.95;1.83;;;6.80;96.70;;;;;;4995688;28;20050;-71
2022/02/06 07:27:05;;;;;;;2.88;1.70;;;6.80;96.80;;;;;;4986190;28;20010;-71
2022/02/06 07:29:31;;;;;;;5.22;2.17;;;6.80;96.80;;;;;;4998519;28;20541;-71
2022/02/06 07:32:00;;;;;;;3.30;1.80;;;6.80;96.70;;;;;;4986151;28;20458;-71
2022/02/06 07:34:25;;;;;;;3.70;1.98;;;6.80;96.80;;;;;;4999418;28;20041;-72
2022/02/06 07:36:51;;;;;;;6.13;2.22;;;6.80;96.80;;;;;;5021231;28;20022;-72
2022/02/06 07:39:16;;;;;;;4.32;2.13;;;6.80;96.80;;;;;;4998556;28;20034;-70
2022/02/06 07:41:42;;;;;;;4.47;2.00;;;6.80;96.80;;;;;;4992895;28;20026;-73
2022/02/06 07:44:08;;;;;;;3.00;1.90;;;6.80;96.80;;;;;;5003184;28;20042;-72
2022/02/06 07:46:45;;;;;;;5.57;2.00;;;6.80;96.90;;;;;;4992364;28;20022;-72
2022/02/06 07:49:11;;;;;;;4.97;1.88;;;6.80;96.90;;;;;;4997147;28;20037;-72
2022/02/06 07:51:37;;;;;;;4.32;1.70;;;6.80;96.90;;;;;;4995579;28;20380;-72
2022/02/06 07:54:03;;;;;;;3.63;1.60;;;6.80;96.90;;;;;;5007636;28;20017;-72
2022/02/06 07:56:29;;;;;;;2.67;1.50;;;6.80;97.00;;;;;;4995353;28;20046;-72
2022/02/06 07:58:55;;;;;;;2.58;1.70;;;6.80;97.00;;;;;;4993290;28;20370;-72
2022/02/06 08:01:20;;;;;;;5.25;1.70;;;6.80;96.90;;;;;;4993214;28;20041;-72
2022/02/06 08:03:46;;;;;;;4.43;1.58;;;6.80;96.90;;;;;;4997285;28;20027;-72
2022/02/06 08:06:12;;;;;;;6.80;2.10;;;6.80;96.90;;;;;;4993277;28;20094;-72
2022/02/06 08:08:38;;;;;;;7.38;2.17;;;6.90;96.90;;;;;;5001547;28;20038;-72
2022/02/06 08:11:06;;;;;;;4.43;1.98;;;6.90;96.90;;;;;;5002465;28;20341;-72
2022/02/06 08:13:51;;;;;;;2.50;1.45;;;6.90;96.80;;;;;;5003393;28;20105;-72
2022/02/06 08:16:17;;;;;;;5.97;2.50;;;6.90;96.80;;;;;;4989574;28;20106;-72
2022/02/06 08:18:43;;;;;;;5.60;2.08;;;7.00;96.80;;;;;;4993623;28;20047;-72
2022/02/06 08:21:10;;;;;;;6.22;2.47;;;7.00;96.70;;;;;;4987586;28;20034;-71
2022/02/06 08:23:36;;;;;;;5.57;2.53;;;7.00;96.70;;;;;;4990783;28;20098;-72
2022/02/06 08:26:03;;;;;;;6.43;3.20;;;6.90;96.80;;;;;;4993357;28;20022;-72
2022/02/06 08:28:28;;;;;;;7.68;3.13;;;6.90;96.80;;;;;;4997360;28;20400;-75
2022/02/06 08:30:54;;;;;;;6.55;3.40;;;6.90;96.90;;;;;;4996440;28;20126;-73
2022/02/06 08:33:19;;;;;;;5.32;1.30;;;6.90;96.90;;;;;;4988377;28;20030;-73
2022/02/06 08:35:49;;;;;;;3.60;1.05;;;6.50;96.40;;;;;;4987859;28;20547;-73
2022/02/06 08:38:15;;;;;;;1.80;1.00;;;6.40;96.50;;;;;;4986169;28;20022;-73
2022/02/06 08:40:40;;;;;;;2.90;0.55;;;6.20;96.40;;;;;;4979888;28;20030;-74
2022/02/06 08:43:06;;;;;;;5.78;1.45;;;6.20;96.50;;;;;;4982005;28;20116;-73
2022/02/06 08:45:33;;;;;;;2.28;0.77;;;6.10;96.40;;;;;;4990105;28;20030;-75
2022/02/06 08:47:58;;;;;;;2.58;0.50;;;6.10;96.50;;;;;;4991352;28;20420;-72
2022/02/06 08:50:24;;;;;;;2.55;0.73;;;6.10;96.50;;;;;;4993938;28;20023;-74
2022/02/06 08:52:50;;;;;;;0.75;0.50;;;6.00;96.60;;;;;;4998611;28;20157;-73
2022/02/06 08:55:17;;;;;;;4.45;1.10;;;5.90;96.60;;;;;;4989835;28;20477;-73
2022/02/06 08:57:47;;;;;;;3.25;1.40;;;6.00;96.60;;;;;;4995972;28;20358;-72
2022/02/06 09:00:14;;;;;;;3.75;1.45;;;6.00;96.70;;;;;;4989209;28;20026;-73
2022/02/06 09:02:40;;;;;;;3.70;1.00;;;6.00;96.80;;;;;;4990705;28;20031;-73
2022/02/06 09:05:05;;;;;;;0.85;0.40;;;6.00;96.70;;;;;;4986847;28;20023;-73
2022/02/06 09:07:31;;;;;;;3.53;0.90;;;6.00;96.70;;;;;;4988266;28;20030;-73
2022/02/06 09:10:00;;;;;;;2.88;1.38;;;6.00;96.80;;;;;;4983072;28;20529;-75
2022/02/06 09:12:27;;;;;;;7.05;2.25;;;6.20;97.20;;;;;;4987330;28;20394;-75
2022/02/06 09:14:53;;;;;;;6.82;2.50;;;6.50;97.30;;;;;;4992346;28;20058;-73
2022/02/06 09:17:19;;;;;;;5.90;2.67;;;6.70;97.30;;;;;;4989989;28;20037;-72
2022/02/06 09:19:45;;;;;;;7.38;2.97;;;6.90;97.20;;;;;;4979250;28;20027;-72
2022/02/06 09:22:11;;;;;;;8.32;3.03;;;6.90;97.10;;;;;;4987902;28;20057;-73
2022/02/06 09:24:37;;;;;;;7.03;3.42;;;7.00;97.00;;;;;;4988752;28;20030;-73
2022/02/06 09:27:05;;;;;;;5.70;2.83;;;7.00;97.00;;;;;;4979143;28;20088;-75
2022/02/06 09:29:30;;;;;;;4.18;2.40;;;7.00;96.90;;;;;;4988027;28;20081;-76
2022/02/06 09:31:56;;;;;;;6.68;2.60;;;7.10;96.80;;;;;;4987515;28;20026;-74
2022/02/06 09:36:48;;;;;;;5.53;2.67;;;7.10;96.70;;;;;;4995987;28;20026;-73
2022/02/06 09:39:14;;;;;;;6.70;2.97;;;7.10;96.70;;;;;;4979110;28;20110;-74
2022/02/06 09:41:46;;;;;;;6.00;2.47;;;7.10;96.60;;;;;;4983391;28;20041;-75
2022/02/06 09:44:13;;;;;;;5.60;2.70;;;7.20;96.70;;;;;;4985755;28;20039;-75
2022/02/06 09:46:40;;;;;;;5.30;2.58;;;7.10;96.70;;;;;;4997055;28;20029;-76
2022/02/06 09:49:07;;;;;;;6.80;2.70;;;7.10;96.80;;;;;;4986267;28;20445;-76
2022/02/06 09:51:33;;;;;;;7.03;2.53;;;7.10;96.80;;;;;;4997715;28;20040;-73
2022/02/06 09:54:00;;;;;;;6.20;2.58;;;7.10;96.80;;;;;;4985854;28;20027;-72
2022/02/06 09:56:28;;;;;;;5.45;2.75;;;7.10;96.80;;;;;;4985740;28;20477;-76
2022/02/06 09:59:03;;;;;;;5.38;3.13;;;7.10;96.90;;;;;;4987019;28;20070;-75
2022/02/06 10:01:34;;;;;;;5.55;2.20;;;7.10;96.90;;;;;;4983089;28;20023;-74
2022/02/06 10:04:05;;;;;;;5.38;2.50;;;7.10;97.00;;;;;;4988925;28;20038;-76
2022/02/06 10:07:10;;;;;;;3.53;2.13;;;7.10;97.00;;;;;;4981198;28;20026;-75
2022/02/06 10:09:41;;;;;;;5.53;2.15;;;7.10;97.10;;;;;;4985274;28;20041;-77
2022/02/06 10:12:08;;;;;;;3.45;1.55;;;7.10;97.00;;;;;;4977637;28;20115;-76
2022/02/06 10:14:35;;;;;;;5.00;1.67;;;7.20;96.90;;;;;;4991147;28;20422;-73
2022/02/06 10:17:00;;;;;;;1.67;1.30;;;7.10;96.90;;;;;;4989907;28;20036;-74
2022/02/06 10:19:28;;;;;;;3.00;1.35;;;7.20;96.90;;;;;;4985227;28;20045;-74
2022/02/06 10:21:54;;;;;;;1.60;1.20;;;7.20;96.80;;;;;;4988404;28;20050;-74
2022/02/06 10:24:27;;;;;;;2.67;0.88;;;7.20;96.80;;;;;;4994835;28;20029;-74
2022/02/06 10:27:17;;;;;;;2.25;1.10;;;7.30;96.60;;;;;;4993539;28;20029;-74
2022/02/06 10:29:44;;;;;;;2.95;1.30;;;7.20;96.60;;;;;;4993482;28;20374;-74
2022/02/06 10:32:17;;;;;;;2.03;1.10;;;7.20;96.70;;;;;;4993493;28;20130;-74
2022/02/06 10:34:44;;;;;;;1.45;1.20;;;7.20;96.70;;;;;;4992227;28;20080;-71
2022/02/06 10:37:21;;;;;;;2.72;1.33;;;7.20;96.50;;;;;;4995103;28;20735;-73
2022/02/06 10:40:02;;;;;;;3.00;1.20;;;7.30;96.60;;;;;;5007004;28;20025;-73
2022/02/06 10:42:31;;;;;;;2.35;1.40;;;7.30;96.50;;;;;;4993828;28;20034;-73
2022/02/06 10:45:17;;;;;;;3.78;1.10;;;7.30;96.40;;;;;;4989552;28;20070;-73
2022/02/06 10:47:51;;;;;;;1.30;0.82;;;7.30;96.40;;;;;;4988224;28;20030;-73
2022/02/06 10:50:28;;;;;;;2.80;1.20;;;7.30;96.40;;;;;;4986878;28;20122;-73
2022/02/06 10:53:08;;;;;;;1.95;1.00;;;7.30;96.30;;;;;;4991667;28;20370;-73
2022/02/06 10:55:34;;;;;;;1.75;0.93;;;7.30;96.30;;;;;;5001107;28;20116;-73
2022/02/06 10:58:02;;;;;;;3.45;1.15;;;7.30;96.40;;;;;;4993877;28;20491;-73
2022/02/06 11:00:34;;;;;;;2.17;1.02;;;7.30;96.10;;;;;;4991989;28;20026;-71
2022/02/06 11:03:21;;;;;;;1.50;0.90;;;7.30;96.00;;;;;;4986031;28;20023;-73
2022/02/06 11:05:50;;;;;;;2.70;0.65;;;7.30;96.00;;;;;;4991501;28;20489;-74
2022/02/06 11:08:24;;;;;;;1.92;0.88;;;7.20;96.10;;;;;;4987975;28;20417;-75
2022/02/06 11:11:12;;;;;;;2.42;0.90;;;7.20;96.00;;;;;;4994505;28;20030;-83
2022/02/06 11:13:38;;;;;;;0.90;0.85;;;7.20;96.10;;;;;;4989332;28;20038;-76
2022/02/06 11:16:15;;;;;;;1.50;0.77;;;7.20;96.00;;;;;;4997980;28;20374;-75
2022/02/06 11:18:48;;;;;;;1.05;0.70;;;7.20;96.10;;;;;;4987419;28;20030;-75
2022/02/06 11:21:17;;;;;;;0.93;0.80;;;7.20;96.00;;;;;;4995805;28;20034;-74
2022/02/06 11:23:50;;;;;;;2.30;0.90;;;7.20;96.00;;;;;;4992757;28;20018;-73
2022/02/06 11:26:18;;;;;;;1.55;0.82;;;7.20;96.10;;;;;;4985826;28;20444;-72
2022/02/06 11:28:44;;;;;;;1.27;0.60;;;7.20;96.10;;;;;;4992505;28;20029;-74
2022/02/06 11:31:10;;;;;;;1.00;0.85;;;7.20;96.20;;;;;;4998248;28;20042;-76
2022/02/06 11:33:37;;;;;;;1.92;0.70;;;7.20;96.10;;;;;;4991291;28;20081;-73
2022/02/06 11:36:13;;;;;;;1.73;0.80;;;7.20;96.10;;;;;;4982241;28;20064;-72
2022/02/06 11:44:31;;;;;;;1.30;0.60;;;7.10;96.10;;;;;;4989823;28;20050;-71
2022/02/06 11:47:11;;;;;;;0.63;0.60;;;7.10;95.50;;;;;;4991083;28;20027;-74
2022/02/06 11:49:47;;;;;;;0.88;0.60;;;7.10;95.50;;;;;;4986881;28;20121;-73
2022/02/06 11:52:13;;;;;;;0.73;0.60;;;7.20;95.60;;;;;;4995155;28;20553;-74
2022/02/06 11:54:50;;;;;;;4.20;0.70;;;7.20;95.60;;;;;;4989840;28;20038;-74
2022/02/06 11:57:21;;;;;;;4.03;1.00;;;7.10;95.80;;;;;;4983939;28;20034;-74
2022/02/06 12:00:08;;;;;;;1.92;0.70;;;7.10;96.00;;;;;;4989981;28;20018;-73
2022/02/06 12:02:39;;;;;;;1.40;0.63;;;7.10;96.20;;;;;;4989045;28;20022;-75
2022/02/06 12:05:19;;;;;;;1.02;0.90;;;7.10;96.30;;;;;;4984475;28;20433;-74
2022/02/06 12:08:09;;;;;;;1.17;0.90;;;7.10;96.30;;;;;;4984581;28;20029;-73
2022/02/06 12:10:34;;;;;;;2.88;1.00;;;7.10;96.50;;;;;;4990150;28;20035;-73
2022/02/06 12:15:51;;;;;;;2.35;0.88;;;7.10;96.60;;;;;;4976697;28;20046;-74
2022/02/06 12:18:28;;;;;;;2.03;1.00;;;7.10;96.60;;;;;;4975533;28;20027;-73
2022/02/06 12:20:56;;;;;;;2.53;0.95;;;7.10;96.60;;;;;;4981913;28;20129;-75
2022/02/06 12:23:39;;;;;;;3.13;1.10;;;7.10;96.70;;;;;;4986215;28;20462;-74
2022/02/06 12:26:37;;;;;;;2.65;0.82;;;7.10;96.70;;;;;;4989934;28;20088;-74
2022/02/06 12:29:20;;;;;;;1.70;0.90;;;7.10;96.70;;;;;;4988793;28;20026;-75
2022/02/06 12:32:00;;;;;;;2.45;1.00;;;7.10;96.70;;;;;;4980858;28;20096;-75
2022/02/06 12:37:32;;;;;;;1.40;0.35;;;7.00;95.90;;;;;;4991028;28;20068;-74
2022/02/06 12:40:00;;;;;;;0.68;0.40;;;7.00;95.20;;;;;;4990634;28;20504;-74
2022/02/06 12:42:35;;;;;;;0.80;0.35;;;6.90;94.90;;;;;;4990708;28;20061;-75
2022/02/06 12:45:04;;;;;;;1.00;0.38;;;6.80;94.90;;;;;;4985210;28;20037;-72
2022/02/06 12:47:30;;;;;;;0.68;0.50;;;6.80;94.80;;;;;;4981225;28;20027;-72
2022/02/06 12:49:56;;;;;;;0.70;0.55;;;6.70;95.20;;;;;;4987927;28;20077;-73
2022/02/06 12:52:23;;;;;;;0.82;0.52;;;6.70;94.80;;;;;;4980698;28;20027;-71
2022/02/06 12:54:49;;;;;;;0.00;0.00;;;6.70;95.00;;;;;;4990128;28;20381;-72
2022/02/06 12:57:19;;;;;;;0.10;0.10;;;6.60;95.20;;;;;;4983602;28;20035;-72
2022/02/06 12:59:45;;;;;;;0.43;0.43;;;6.50;95.50;;;;;;4980752;28;20038;-72
2022/02/06 13:02:11;;;;;;;0.10;0.10;;;6.10;95.00;;;;;;4983244;28;20030;-72
2022/02/06 13:04:42;;;;;;;0.10;0.10;;;5.20;94.40;;;;;;4989553;28;20023;-72
2022/02/06 13:07:08;;;;;;;0.10;0.10;;;4.60;94.90;;;;;;4992600;28;20030;-75
2022/02/06 13:09:41;;;;;;;0.10;0.10;;;4.10;95.10;;;;;;4994644;28;20089;-73
2022/02/06 13:12:26;;;;;;;0.43;0.35;;;4.10;95.50;;;;;;4982541;28;20041;-74
2022/02/06 13:31:49;;;;;;;0.10;0.10;;;3.80;95.50;;;;;;4989340;28;20120;-72
2022/02/06 13:36:35;;;;;;;0.10;0.10;;;3.80;95.00;;;;;;4986786;28;20037;-73
2022/02/06 13:39:12;;;;;;;0.10;0.10;;;3.70;95.00;;;;;;4992597;28;20026;-72
2022/02/06 13:41:38;;;;;;;0.38;0.38;;;3.70;95.00;;;;;;4978950;28;20038;-72
2022/02/06 13:44:17;;;;;;;0.10;0.10;;;3.80;95.10;;;;;;4988276;28;20019;-73
2022/02/06 13:46:43;;;;;;;0.10;0.10;;;3.70;95.10;;;;;;4988992;28;20030;-74
2022/02/06 13:49:09;;;;;;;0.10;0.10;;;3.60;95.00;;;;;;4980059;28;20038;-74
2022/02/06 13:51:46;;;;;;;0.10;0.10;;;3.60;95.10;;;;;;4984882;28;20394;-73
2022/02/06 13:54:13;;;;;;;0.10;0.10;;;3.60;95.20;;;;;;4986306;28;20026;-74
2022/02/06 13:56:39;;;;;;;0.10;0.10;;;3.60;95.30;;;;;;4988889;28;20018;-72
2022/02/06 13:59:19;;;;;;;0.10;0.10;;;3.60;95.30;;;;;;4991556;28;20037;-74
2022/02/06 14:01:53;;;;;;;0.10;0.10;;;3.50;95.30;;;;;;4983824;28;20065;-76
2022/02/06 14:04:22;;;;;;;0.20;0.20;;;3.60;95.40;;;;;;4992668;28;20568;-74
2022/02/06 14:06:54;;;;;;;0.10;0.10;;;3.60;95.40;;;;;;4983908;28;20039;-74
2022/02/06 14:09:32;;;;;;;0.25;0.25;;;3.60;95.50;;;;;;4988769;28;20026;-74
2022/02/06 14:11:59;;;;;;;0.10;0.10;;;3.60;95.50;;;;;;4993176;28;20060;-74
2022/02/06 14:14:26;;;;;;;0.10;0.10;;;3.60;95.50;;;;;;4980357;28;20374;-77
2022/02/06 14:16:57;;;;;;;0.10;0.10;;;3.70;95.60;;;;;;4992119;28;20045;-76
2022/02/06 14:19:34;;;;;;;0.10;0.10;;;3.70;95.70;;;;;;4986295;28;20026;-74
2022/02/06 14:22:00;;;;;;;0.93;0.93;;;3.70;95.60;;;;;;4985415;28;20030;-72
2022/02/06 14:24:27;;;;;;;0.10;0.10;;;3.70;95.80;;;;;;4991209;28;20042;-72
2022/02/06 14:27:00;;;;;;;0.10;0.10;;;3.70;95.80;;;;;;4995116;28;20046;-72
2022/02/06 14:29:26;;;;;;;0.20;0.20;;;3.70;95.90;;;;;;4991819;28;20034;-72
2022/02/06 14:31:51;;;;;;;0.10;0.10;;;3.70;96.00;;;;;;4981251;28;20019;-72
2022/02/06 14:34:19;;;;;;;0.10;0.10;;;3.70;96.10;;;;;;4982770;28;20603;-74
2022/02/06 14:37:07;;;;;;;0.10;0.10;;;3.80;96.00;;;;;;4987049;28;20032;-72
2022/02/06 14:39:36;;;;;;;0.10;0.10;;;3.90;96.10;;;;;;4980817;28;20529;-73
2022/02/06 14:42:12;;;;;;;0.10;0.10;;;3.90;96.10;;;;;;4990798;28;20014;-73
2022/02/06 14:44:40;;;;;;;0.10;0.10;;;3.90;96.10;;;;;;4990331;28;20036;-72
2022/02/06 14:47:05;;;;;;;0.10;0.10;;;4.00;96.20;;;;;;4990571;28;20035;-72
2022/02/06 14:49:31;;;;;;;0.30;0.30;;;4.00;96.20;;;;;;4975475;28;20133;-73
2022/02/06 14:51:59;;;;;;;0.10;0.10;;;4.00;96.20;;;;;;4980035;28;20035;-73
2022/02/06 14:54:31;;;;;;;0.10;0.10;;;4.00;96.20;;;;;;4980176;28;20022;-74
2022/02/06 14:56:57;;;;;;;0.10;0.10;;;4.10;96.30;;;;;;4986137;28;20117;-74
2022/02/06 14:59:22;;;;;;;0.10;0.10;;;4.10;96.10;;;;;;4983195;28;20102;-73
2022/02/06 15:01:50;;;;;;;0.10;0.10;;;4.10;96.10;;;;;;4980723;28;20350;-73
2022/02/06 15:04:17;;;;;;;0.20;0.20;;;4.10;96.20;;;;;;4991522;28;20366;-74
2022/02/06 15:06:42;;;;;;;0.10;0.10;;;4.10;96.10;;;;;;4990902;28;20054;-74
2022/02/06 15:09:08;;;;;;;0.10;0.10;;;4.20;96.10;;;;;;4996876;28;20362;-73
2022/02/06 15:11:33;;;;;;;0.10;0.10;;;4.20;96.20;;;;;;4986754;28;20041;-73
2022/02/06 15:13:59;;;;;;;0.10;0.10;;;4.20;96.10;;;;;;4995222;28;20342;-73
2022/02/06 15:16:28;;;;;;;0.08;0.08;;;4.20;96.10;;;;;;5001118;28;20437;-73
2022/02/06 15:19:14;;;;;;;0.10;0.10;;;4.20;96.10;;;;;;4993348;28;20050;-73
2022/02/06 15:21:40;;;;;;;0.10;0.10;;;4.30;96.20;;;;;;4989626;28;20030;-73
2022/02/06 15:24:06;;;;;;;0.10;0.10;;;4.30;96.20;;;;;;4989683;28;20049;-73
2022/02/06 15:26:32;;;;;;;0.10;0.10;;;4.30;96.20;;;;;;4986724;28;20029;-73
2022/02/06 15:28:57;;;;;;;0.00;0.00;;;4.40;96.20;;;;;;4993307;28;20030;-72
2022/02/06 15:31:23;;;;;;;0.10;0.10;;;4.40;96.20;;;;;;4986751;28;20041;-74
2022/02/06 15:33:52;;;;;;;0.20;0.20;;;4.40;96.20;;;;;;4991412;28;20497;-75